createdAt,value
2019-05-06T00:02:13.663Z,2.10
2019-05-06T00:04:44.837Z,2.00
2019-05-06T00:07:15.867Z,2.10
2019-05-06T00:09:46.851Z,2.20
2019-05-06T00:12:17.895Z,2.10
2019-05-06T00:14:48.877Z,2.00
2019-05-06T00:17:19.856Z,2.00
2019-05-06T00:19:50.841Z,2.10
2019-05-06T00:24:59.963Z,2.10
2019-05-06T00:27:37.695Z,2.00
2019-05-06T00:30:09.080Z,2.00
2019-05-06T00:32:41.251Z,1.90
2019-05-06T00:35:14.200Z,1.90
2019-05-06T00:37:44.907Z,1.90
2019-05-06T00:40:24.392Z,1.90
2019-05-06T00:43:05.983Z,1.90
2019-05-06T00:45:37.031Z,1.90
2019-05-06T00:48:08.039Z,1.90
2019-05-06T00:50:39.059Z,1.80
2019-05-06T00:53:14.171Z,1.80
2019-05-06T00:55:45.355Z,1.80
2019-05-06T00:58:16.411Z,1.80
2019-05-06T01:00:47.412Z,1.90
2019-05-06T01:03:19.627Z,2.00
2019-05-06T01:05:50.695Z,2.00
2019-05-06T01:08:23.793Z,2.00
2019-05-06T01:13:40.273Z,2.00
2019-05-06T01:16:12.383Z,1.90
2019-05-06T01:18:43.548Z,1.90
2019-05-06T01:21:14.727Z,1.80
2019-05-06T01:23:46.598Z,1.80
2019-05-06T01:26:18.400Z,1.80
2019-05-06T01:28:49.411Z,1.70
2019-05-06T01:31:20.468Z,1.70
2019-05-06T01:33:53.427Z,1.70
2019-05-06T01:36:24.961Z,1.80
2019-05-06T01:39:21.143Z,1.70
2019-05-06T01:42:15.935Z,1.70
2019-05-06T01:44:46.954Z,1.70
2019-05-06T01:47:17.947Z,1.60
2019-05-06T01:52:19.231Z,1.70
2019-05-06T01:54:50.315Z,1.60
2019-05-06T01:57:21.331Z,1.60
2019-05-06T01:59:53.980Z,1.60
2019-05-06T02:02:25.327Z,1.60
2019-05-06T02:04:56.311Z,1.60
2019-05-06T02:07:27.303Z,1.50
2019-05-06T02:09:58.323Z,1.50
2019-05-06T02:12:29.327Z,1.40
2019-05-06T02:15:00.415Z,1.40
2019-05-06T02:17:31.487Z,1.40
2019-05-06T02:20:04.204Z,1.40
2019-05-06T02:22:43.824Z,1.40
2019-05-06T02:25:19.367Z,1.40
2019-05-06T02:27:50.427Z,1.40
2019-05-06T02:30:39.816Z,1.40
2019-05-06T02:33:35.550Z,1.30
2019-05-06T02:36:25.762Z,1.30
2019-05-06T02:38:56.632Z,1.40
2019-05-06T02:43:57.784Z,1.50
2019-05-06T02:46:29.063Z,1.50
2019-05-06T02:49:17.903Z,1.50
2019-05-06T02:51:48.879Z,1.50
2019-05-06T02:54:23.158Z,1.60
2019-05-06T02:56:53.133Z,1.50
2019-05-06T02:59:24.400Z,1.60
2019-05-06T03:01:56.494Z,1.50
2019-05-06T03:04:27.872Z,1.40
2019-05-06T03:06:58.869Z,1.40
2019-05-06T03:09:29.851Z,1.40
2019-05-06T03:12:03.535Z,1.40
2019-05-06T03:17:05.796Z,1.40
2019-05-06T03:19:38.419Z,1.40
2019-05-06T03:22:35.895Z,1.40
2019-05-06T03:25:13.624Z,1.40
2019-05-06T03:27:46.993Z,1.50
2019-05-06T03:33:23.456Z,1.60
2019-05-06T03:37:53.399Z,1.60
2019-05-06T03:42:54.787Z,1.70
2019-05-06T03:48:12.983Z,1.70
2019-05-06T03:58:19.416Z,2.00
2019-05-06T04:03:41.178Z,2.40
2019-05-06T04:05:55.875Z,2.50
2019-05-06T04:08:27.551Z,2.50
2019-05-06T04:10:58.952Z,2.50
2019-05-06T04:13:33.208Z,2.70
2019-05-06T04:16:28.604Z,2.90
2019-05-06T04:22:03.834Z,3.30
2019-05-06T04:24:44.551Z,3.50
2019-05-06T04:30:33.572Z,3.70
2019-05-06T04:33:04.832Z,3.90
2019-05-06T04:35:35.944Z,4.00
2019-05-06T04:38:06.963Z,4.00
2019-05-06T04:40:38.152Z,4.20
2019-05-06T04:45:39.608Z,4.70
2019-05-06T04:48:14.420Z,5.00
2019-05-06T04:50:44.847Z,5.20
2019-05-06T04:55:48.936Z,5.30
2019-05-06T04:58:23.099Z,5.50
2019-05-06T05:05:54.683Z,6.00
2019-05-06T05:08:37.015Z,6.10
2019-05-06T05:11:16.007Z,6.40
2019-05-06T05:14:14.757Z,6.40
2019-05-06T05:17:12.860Z,6.70
2019-05-06T05:19:44.228Z,7.30
2019-05-06T05:22:15.331Z,7.50
2019-05-06T05:24:46.347Z,7.50
2019-05-06T05:27:17.446Z,7.50
2019-05-06T05:29:48.467Z,7.60
2019-05-06T05:32:19.627Z,7.90
2019-05-06T05:34:52.247Z,7.90
2019-05-06T05:37:23.334Z,8.20
2019-05-06T05:39:54.363Z,8.30
2019-05-06T05:42:52.131Z,8.50
2019-05-06T05:45:22.792Z,8.80
2019-05-06T05:47:55.435Z,8.90
2019-05-06T05:50:36.412Z,9.20
2019-05-06T05:53:07.408Z,9.30
2019-05-06T05:55:38.409Z,9.60
2019-05-06T05:58:09.407Z,9.60
2019-05-06T06:00:42.588Z,9.80
2019-05-06T06:03:13.407Z,9.90
2019-05-06T06:05:44.585Z,10.00
2019-05-06T06:08:15.759Z,10.30
2019-05-06T06:10:52.406Z,10.60
2019-05-06T06:13:23.771Z,10.70
2019-05-06T06:16:13.017Z,10.90
2019-05-06T06:19:03.226Z,10.90
2019-05-06T06:21:38.340Z,11.00
2019-05-06T06:24:23.247Z,11.10
2019-05-06T06:26:54.340Z,11.50
2019-05-06T06:29:25.376Z,11.70
2019-05-06T06:32:14.250Z,11.90
2019-05-06T06:35:07.457Z,12.20
2019-05-06T06:37:46.379Z,12.40
2019-05-06T06:42:53.083Z,12.60
2019-05-06T06:45:24.121Z,12.50
2019-05-06T06:47:55.142Z,12.40
2019-05-06T06:50:26.563Z,12.60
2019-05-06T06:52:57.563Z,12.80
2019-05-06T06:55:28.567Z,12.80
2019-05-06T07:01:12.943Z,14.20
2019-05-06T07:03:48.783Z,15.70
2019-05-06T07:06:37.662Z,17.00
2019-05-06T07:09:09.269Z,17.90
2019-05-06T07:11:42.648Z,18.20
2019-05-06T07:14:13.694Z,18.80
2019-05-06T07:16:44.899Z,18.80
2019-05-06T07:19:18.939Z,17.70
2019-05-06T07:21:55.579Z,16.90
2019-05-06T07:24:26.631Z,16.50
2019-05-06T07:27:22.910Z,15.80
2019-05-06T07:29:54.047Z,14.60
2019-05-06T07:32:25.106Z,13.90
2019-05-06T07:34:56.146Z,13.60
2019-05-06T07:37:27.127Z,13.30
2019-05-06T07:39:58.419Z,13.20
2019-05-06T07:45:27.075Z,14.80
2019-05-06T07:50:33.215Z,16.60
2019-05-06T07:53:08.624Z,17.20
2019-05-06T07:55:42.187Z,18.20
2019-05-06T07:58:13.781Z,18.60
2019-05-06T08:00:44.935Z,18.80
2019-05-06T08:03:16.581Z,18.40
2019-05-06T08:05:55.729Z,17.10
2019-05-06T08:08:23.077Z,16.00
2019-05-06T08:10:55.179Z,15.50
2019-05-06T08:13:26.167Z,15.00
2019-05-06T08:15:57.172Z,15.20
2019-05-06T08:18:28.159Z,15.30
2019-05-06T08:21:02.496Z,15.30
2019-05-06T08:23:44.368Z,15.00
2019-05-06T08:26:17.483Z,14.80
2019-05-06T08:28:48.143Z,14.10
2019-05-06T08:33:52.702Z,13.70
2019-05-06T08:36:35.380Z,13.50
2019-05-06T08:41:37.947Z,13.40
2019-05-06T08:44:08.931Z,13.50
2019-05-06T08:46:39.926Z,13.30
2019-05-06T08:51:53.121Z,13.70
2019-05-06T08:54:32.483Z,13.80
2019-05-06T08:57:03.514Z,13.80
2019-05-06T08:59:34.611Z,14.20
2019-05-06T09:02:06.063Z,14.50
2019-05-06T09:04:37.162Z,14.90
2019-05-06T09:07:08.139Z,15.20
2019-05-06T09:09:39.135Z,15.80
2019-05-06T09:12:12.996Z,16.30
2019-05-06T09:14:44.223Z,16.70
2019-05-06T09:17:15.223Z,17.30
2019-05-06T09:22:16.328Z,19.50
2019-05-06T09:24:47.979Z,19.90
2019-05-06T09:30:23.087Z,20.00
2019-05-06T09:32:54.148Z,23.80
2019-05-06T09:35:25.714Z,26.30
2019-05-06T09:37:57.315Z,29.20
2019-05-06T09:40:28.871Z,26.00
2019-05-06T09:45:32.986Z,19.60
2019-05-06T09:48:13.175Z,18.20
2019-05-06T09:50:46.734Z,17.70
2019-05-06T09:53:23.119Z,17.60
2019-05-06T09:56:33.503Z,16.90
2019-05-06T09:59:04.839Z,16.40
2019-05-06T10:01:35.959Z,15.90
2019-05-06T10:04:08.125Z,16.40
2019-05-06T10:06:54.880Z,17.00
2019-05-06T10:11:44.886Z,19.70
2019-05-06T10:16:46.891Z,28.00
2019-05-06T10:19:18.547Z,31.50
2019-05-06T10:21:50.168Z,32.20
2019-05-06T10:24:21.819Z,26.80
2019-05-06T10:26:57.627Z,23.10
2019-05-06T10:29:37.259Z,19.60
2019-05-06T10:32:14.991Z,17.80
2019-05-06T10:34:46.615Z,17.80
2019-05-06T10:37:29.376Z,19.40
2019-05-06T10:40:26.395Z,18.20
2019-05-06T10:43:08.136Z,16.80
2019-05-06T10:48:09.911Z,15.80
2019-05-06T10:50:45.465Z,15.60
2019-05-06T10:53:23.072Z,15.80
2019-05-06T10:58:25.088Z,15.70
2019-05-06T11:01:23.116Z,15.60
2019-05-06T11:03:54.291Z,15.50
2019-05-06T11:06:25.294Z,15.90
2019-05-06T11:08:56.275Z,16.90
2019-05-06T11:11:36.998Z,18.10
2019-05-06T11:13:59.907Z,19.10
2019-05-06T11:16:33.120Z,18.90
2019-05-06T11:19:05.181Z,19.50
2019-05-06T11:21:36.906Z,20.50
2019-05-06T11:24:07.890Z,21.80
2019-05-06T11:26:39.980Z,23.80
2019-05-06T11:29:17.513Z,21.50
2019-05-06T11:32:05.971Z,19.50
2019-05-06T11:34:45.322Z,18.10
2019-05-06T11:37:25.251Z,16.70
2019-05-06T11:39:56.227Z,16.40
2019-05-06T11:44:59.061Z,15.90
2019-05-06T11:47:32.499Z,16.00
2019-05-06T11:50:05.065Z,15.60
2019-05-06T11:52:37.260Z,14.50
2019-05-06T11:55:08.547Z,14.00
2019-05-06T11:57:44.520Z,13.80
2019-05-06T12:00:17.887Z,13.60
2019-05-06T12:02:49.155Z,13.40
2019-05-06T12:05:22.248Z,13.40
2019-05-06T12:08:03.777Z,13.30
2019-05-06T12:10:25.847Z,13.50
2019-05-06T12:12:56.955Z,13.60
2019-05-06T12:15:28.079Z,13.60
2019-05-06T12:17:59.065Z,13.90
2019-05-06T12:20:30.056Z,14.00
2019-05-06T12:23:04.444Z,14.20
2019-05-06T12:25:33.770Z,14.60
2019-05-06T12:28:04.787Z,15.00
2019-05-06T12:30:35.763Z,15.30
2019-05-06T12:33:34.848Z,15.20
2019-05-06T12:36:20.283Z,16.10
2019-05-06T12:39:10.076Z,16.80
2019-05-06T12:42:09.051Z,17.10
2019-05-06T12:44:41.455Z,17.20
2019-05-06T12:47:32.943Z,16.70
2019-05-06T12:50:06.335Z,17.20
2019-05-06T12:52:37.328Z,16.70
2019-05-06T12:55:18.490Z,16.20
2019-05-06T12:57:43.179Z,16.00
2019-05-06T13:00:14.407Z,15.90
2019-05-06T13:02:45.500Z,15.70
2019-05-06T13:05:16.889Z,16.00
2019-05-06T13:07:48.167Z,17.00
2019-05-06T13:10:23.045Z,20.20
2019-05-06T13:15:33.837Z,20.10
2019-05-06T13:18:07.092Z,20.10
2019-05-06T13:20:38.240Z,21.00
2019-05-06T13:23:26.944Z,21.70
2019-05-06T13:25:57.895Z,21.90
2019-05-06T13:28:33.383Z,21.80
2019-05-06T13:31:15.762Z,20.40
2019-05-06T13:34:06.050Z,20.00
2019-05-06T13:36:37.063Z,22.30
2019-05-06T13:39:14.394Z,27.50
2019-05-06T13:41:42.235Z,28.50
2019-05-06T13:44:15.563Z,29.50
2019-05-06T13:46:49.059Z,30.10
2019-05-06T13:49:32.977Z,30.20
2019-05-06T13:52:09.182Z,28.90
2019-05-06T13:54:42.210Z,26.30
2019-05-06T13:57:13.990Z,21.60
2019-05-06T13:59:45.650Z,20.40
2019-05-06T14:02:24.025Z,22.60
2019-05-06T14:04:55.683Z,25.30
2019-05-06T14:09:58.039Z,25.60
2019-05-06T14:12:29.655Z,23.40
2019-05-06T14:15:04.093Z,20.50
2019-05-06T14:17:34.566Z,18.60
2019-05-06T14:20:06.442Z,17.80
2019-05-06T14:22:37.527Z,16.80
2019-05-06T14:25:33.231Z,15.90
2019-05-06T14:28:14.539Z,15.10
2019-05-06T14:31:03.924Z,14.70
2019-05-06T14:33:34.923Z,14.70
2019-05-06T14:36:05.920Z,15.20
2019-05-06T14:38:36.945Z,20.20
2019-05-06T14:41:17.704Z,24.50
2019-05-06T14:43:48.764Z,25.60
2019-05-06T14:48:49.971Z,20.30
2019-05-06T14:51:22.290Z,20.70
2019-05-06T14:53:55.329Z,23.10
2019-05-06T14:56:33.939Z,19.70
2019-05-06T15:01:44.877Z,17.10
2019-05-06T15:09:17.127Z,21.80
2019-05-06T15:11:48.727Z,20.30
2019-05-06T15:14:22.722Z,17.60
2019-05-06T15:16:53.371Z,15.90
2019-05-06T15:21:55.531Z,14.60
2019-05-06T15:24:26.600Z,14.40
2019-05-06T15:26:57.647Z,14.10
2019-05-06T15:29:29.808Z,13.60
2019-05-06T15:37:48.411Z,13.30
2019-05-06T15:40:31.262Z,13.20
2019-05-06T15:42:53.360Z,13.30
2019-05-06T15:47:54.589Z,13.40
2019-05-06T15:50:25.619Z,13.40
2019-05-06T15:55:26.743Z,13.50
2019-05-06T16:00:28.003Z,13.70
2019-05-06T16:02:59.092Z,14.10
2019-05-06T16:05:31.688Z,14.30
2019-05-06T16:10:50.950Z,14.10
2019-05-06T16:15:37.954Z,13.60
2019-05-06T16:20:39.115Z,13.40
2019-05-06T16:35:54.767Z,13.10
2019-05-06T16:41:09.370Z,13.30
2019-05-06T16:43:29.019Z,13.20
2019-05-06T16:46:03.293Z,13.10
2019-05-06T16:51:05.367Z,12.70
2019-05-06T16:53:36.479Z,12.60
2019-05-06T16:56:23.063Z,12.50
2019-05-06T16:58:57.248Z,12.20
2019-05-06T17:01:28.263Z,12.10
2019-05-06T17:04:17.333Z,11.90
2019-05-06T17:06:48.403Z,11.80
2019-05-06T17:09:24.268Z,11.70
2019-05-06T17:11:52.185Z,11.70
2019-05-06T17:14:23.231Z,11.60
2019-05-06T17:16:54.256Z,11.50
2019-05-06T17:19:25.331Z,11.40
2019-05-06T17:29:22.722Z,11.10
2019-05-06T17:32:12.924Z,11.00
2019-05-06T17:37:37.058Z,10.80
2019-05-06T17:42:42.247Z,10.70
2019-05-06T17:45:32.129Z,10.60
2019-05-06T17:48:27.786Z,10.40
2019-05-06T17:51:19.107Z,10.30
2019-05-06T17:56:23.363Z,10.00
2019-05-06T18:01:32.681Z,9.80
2019-05-06T18:04:03.247Z,9.70
2019-05-06T18:06:34.424Z,9.50
2019-05-06T18:09:07.963Z,9.30
2019-05-06T18:11:42.459Z,9.20
2019-05-06T18:14:13.208Z,9.10
2019-05-06T18:16:44.292Z,8.90
2019-05-06T18:19:15.291Z,8.80
2019-05-06T18:21:46.272Z,8.80
2019-05-06T18:24:17.324Z,8.80
2019-05-06T18:29:18.591Z,8.70
2019-05-06T18:34:19.783Z,8.60
2019-05-06T18:36:52.455Z,8.40
2019-05-06T18:39:23.591Z,8.30
2019-05-06T18:41:54.651Z,8.30
2019-05-06T18:44:25.732Z,8.20
2019-05-06T18:46:56.831Z,8.20
2019-05-06T18:56:58.311Z,8.30
2019-05-06T18:59:29.312Z,8.40
2019-05-06T19:04:47.148Z,8.60
2019-05-06T19:07:18.235Z,8.60
2019-05-06T19:09:57.259Z,8.60
2019-05-06T19:12:34.485Z,8.70
2019-05-06T19:15:03.137Z,8.70
2019-05-06T19:17:33.766Z,8.60
2019-05-06T19:20:05.062Z,8.60
2019-05-06T19:25:06.607Z,8.70
2019-05-06T19:27:37.676Z,8.70
2019-05-06T19:30:08.968Z,8.70
2019-05-06T19:32:42.379Z,8.70
2019-05-06T19:35:13.261Z,8.80
2019-05-06T19:37:44.552Z,8.80
2019-05-06T19:42:49.725Z,8.80
2019-05-06T19:45:18.839Z,8.80
2019-05-06T19:47:52.166Z,8.80
2019-05-06T19:50:25.738Z,8.80
2019-05-06T19:52:55.167Z,8.70
2019-05-06T19:55:26.187Z,8.70
2019-05-06T19:57:58.222Z,8.70
2019-05-06T20:02:59.563Z,8.60
2019-05-06T20:05:36.827Z,8.60
2019-05-06T20:11:22.566Z,8.60
2019-05-06T20:16:23.883Z,8.50
2019-05-06T20:21:25.660Z,8.40
2019-05-06T20:23:56.679Z,8.30
2019-05-06T20:26:27.822Z,8.30
2019-05-06T20:33:59.187Z,8.30
2019-05-06T20:36:32.908Z,8.20
2019-05-06T20:39:03.847Z,8.20
2019-05-06T20:41:36.605Z,8.20
2019-05-06T20:44:07.663Z,8.20
2019-05-06T20:46:38.703Z,8.20
2019-05-06T20:49:13.076Z,8.20
2019-05-06T20:51:43.403Z,8.10
2019-05-06T20:54:14.471Z,8.10
2019-05-06T20:56:46.983Z,8.10
2019-05-06T20:59:18.116Z,8.00
2019-05-06T21:01:49.096Z,8.00
2019-05-06T21:04:20.111Z,8.00
2019-05-06T21:06:51.091Z,8.00
2019-05-06T21:09:23.283Z,8.00
2019-05-06T21:11:54.568Z,8.00
2019-05-06T21:14:25.624Z,7.80
2019-05-06T21:19:27.199Z,7.90
2019-05-06T21:21:58.183Z,7.90
2019-05-06T21:24:29.236Z,7.90
2019-05-06T21:27:02.647Z,7.90
2019-05-06T21:29:33.878Z,7.80
2019-05-06T21:32:05.252Z,7.80
2019-05-06T21:34:36.267Z,7.70
2019-05-06T21:37:07.736Z,7.70
2019-05-06T21:39:38.835Z,7.70
2019-05-06T21:42:12.219Z,7.60
2019-05-06T21:44:48.347Z,7.60
2019-05-06T21:47:19.703Z,7.60
2019-05-06T21:49:52.778Z,7.50
2019-05-06T21:52:36.278Z,7.50
2019-05-06T21:55:02.386Z,7.50
2019-05-06T21:57:32.719Z,7.50
2019-05-06T22:00:05.396Z,7.50
2019-05-06T22:02:38.118Z,7.50
2019-05-06T22:05:09.635Z,7.50
2019-05-06T22:10:10.971Z,7.50
2019-05-06T22:15:15.211Z,7.50
2019-05-06T22:17:46.259Z,7.30
2019-05-06T22:20:17.411Z,7.20
2019-05-06T22:22:48.429Z,7.20
2019-05-06T22:25:19.492Z,7.10
2019-05-06T22:27:51.953Z,7.10
2019-05-06T22:30:23.871Z,6.90
2019-05-06T22:32:55.079Z,6.90
2019-05-06T22:35:26.146Z,6.80
2019-05-06T22:37:57.251Z,6.80
2019-05-06T22:40:28.236Z,6.80
2019-05-06T22:42:59.276Z,6.90
2019-05-06T22:45:30.335Z,6.80
2019-05-06T22:50:33.115Z,6.70
2019-05-06T22:53:04.125Z,6.70
2019-05-06T22:55:35.119Z,6.60
2019-05-06T22:58:06.191Z,6.50
2019-05-06T23:00:42.434Z,6.30
2019-05-06T23:03:15.411Z,6.30
2019-05-06T23:05:46.454Z,6.10
2019-05-06T23:08:17.562Z,6.10
2019-05-06T23:10:48.636Z,6.00
2019-05-06T23:13:19.697Z,5.90
2019-05-06T23:15:52.364Z,5.80
2019-05-06T23:18:24.376Z,5.70
2019-05-06T23:20:55.371Z,5.60
2019-05-06T23:23:26.443Z,5.50
2019-05-06T23:26:25.409Z,5.50
2019-05-06T23:31:26.647Z,5.30
2019-05-06T23:33:57.643Z,5.20
2019-05-06T23:36:32.915Z,5.20
2019-05-06T23:42:29.459Z,5.10
2019-05-06T23:45:36.195Z,5.00
2019-05-06T23:51:33.082Z,4.90
2019-05-06T23:54:42.756Z,4.80
2019-05-06T23:57:11.743Z,4.70
2019-05-06T23:59:43.136Z,4.60
